Latest Coastal Weather Observations for Truscott

IDD60701

Issued at 2:15 pm CST Monday 20 October 2014 (issued every 10 minutes, with the page automatically refreshed every 10 minutes)

About coastal observations | Map of coastal stations | Coastal observations for NT | Marine services | Other Formats
Station Details ID: 001020 Name: TRUSCOTT Lat: -14.09 Lon: 126.39 Height: 51.0 m
Data from the previous 72 hours. | See also: Recent months at Truscott
Date/Time
CST
Temp

°C
Wind Pressure Rain
since 9am
mm
Weather Cloud Vis
km
Sea
Height
m
Swell
Dir
 
Speed
knots
Gust
knots
hPa Trend Height
m
Period
s
Dir
20/02:00pm 32.4 NW 9 14 1012.4 - 0.0 - - 10 - - - -
20/01:30pm 32.1 WNW 8 13 1012.3 - 0.0 - Mostly clear 10 - - - -
20/01:00pm 31.9 WNW 8 14 1013.5 - 0.0 - Partly cloudy 10 - - - -
20/12:30pm 32.5 W 10 14 1013.9 - 0.0 - - 10 - - - -
20/12:00pm 32.3 W 8 13 1014.3 - 0.0 - - 10 - - - -
20/11:30am 31.4 WNW 8 12 1014.7 - 0.0 - Partly cloudy 10 - - - -
20/11:00am 31.1 W 9 12 1015.1 - 0.0 - Partly cloudy 10 - - - -
20/10:30am 31.0 W 7 10 1015.0 - 0.0 - - 10 - - - -
20/10:00am 30.4 NW 6 11 1015.6 - 0.0 - Partly cloudy 10 - - - -
20/09:30am 29.0 NW 5 7 1015.9 - 0.0 - Partly cloudy 10 - - - -
20/09:00am 29.6 W 6 8 1015.4 - 0.0 - - 10 - - - -
20/08:30am 28.7 WNW 5 10 1015.0 - 0.0 - - 10 - - - -
20/08:00am 28.1 W 4 6 1014.7 - 0.0 - - 10 - - - -
20/07:30am 26.1 NW 3 5 1013.6 - 0.0 - - 10 - - - -
20/07:00am 24.0 CALM 0 0 1013.9 - 0.0 - - 10 - - - -
20/06:30am 23.8 WNW 2 4 1013.5 - 0.0 - - 10 - - - -
20/06:00am 23.6 NW 1 5 1013.1 - 0.0 - - 10 - - - -
20/05:30am 24.4 W 2 5 1012.6 - 0.0 - - 10 - - - -
20/05:00am 23.9 CALM 0 4 1012.4 - 0.0 - - 10 - - - -
20/04:30am 24.1 CALM 0 0 1011.6 - 0.0 - Mostly clear 10 - - - -
20/04:00am 24.0 CALM 0 0 1012.0 - 0.0 - - 10 - - - -
20/03:30am 24.3 SW 1 3 1011.9 - 0.0 - Partly cloudy 10 - - - -
20/03:00am 24.6 SW 2 3 1012.0 - 0.0 - Partly cloudy 10 - - - -
20/02:30am 25.8 WSW 3 4 1012.1 - 0.0 - - 10 - - - -
20/02:00am 25.9 W 4 6 1012.3 - 0.0 - - 10 - - - -
20/01:30am 26.2 WSW 4 7 1012.1 - 0.0 - - 10 - - - -
20/01:00am 26.2 W 5 7 1013.0 - 0.0 - - 10 - - - -
20/12:30am 26.1 W 4 6 1013.2 - 0.0 - - 10 - - - -
20/12:00am 26.4 WSW 4 6 1013.3 - 0.0 - - 10 - - - -
 
Date/Time
CST
Temp

°C
Wind Pressure Rain
since 9am
mm
Weather Cloud Vis
km
Sea
Height
m
Swell
Dir
 
Speed
knots
Gust
knots
hPa Trend Height
m
Period
s
Dir
19/11:30pm 26.6 WSW 5 6 1013.5 - 0.0 - - 10 - - - -
19/11:00pm 26.8 WSW 5 6 1013.8 - 0.0 - - 10 - - - -
19/10:30pm 27.1 WSW 5 7 1013.1 - 0.0 - - 10 - - - -
19/10:00pm 27.2 W 5 7 1013.5 - 0.0 - - 10 - - - -
19/09:30pm 26.9 NW 4 5 1013.3 - 0.0 - - 10 - - - -
19/09:00pm 27.0 NW 5 7 1013.1 - 0.0 - - 10 - - - -
19/08:30pm 27.0 NW 4 6 1012.8 - 0.0 - - 10 - - - -
19/08:00pm 27.3 NW 5 8 1012.4 - 0.0 - - 10 - - - -
19/07:30pm 27.6 NNW 6 8 1011.4 - 0.0 - - 10 - - - -
19/07:00pm 27.9 NNW 6 10 1011.7 - 0.0 - - 10 - - - -
19/06:30pm 28.6 NNW 8 11 1011.3 - 0.0 - - 10 - - - -
19/06:00pm 29.0 N 9 13 1011.0 - 0.0 - - 10 - - - -
19/05:30pm 29.5 N 10 15 1010.8 - 0.0 - - 10 - - - -
19/05:00pm 29.7 N 10 16 1010.7 - 0.0 - - 10 - - - -
19/04:30pm 30.7 N 10 14 1010.1 - 0.0 - - 10 - - - -
19/04:00pm 30.9 N 11 16 1010.8 - 0.0 - - 10 - - - -
19/03:30pm 31.5 N 11 15 1010.9 - 0.0 - - 10 - - - -
19/03:00pm 32.6 N 10 16 1011.1 - 0.0 - - 10 - - - -
19/02:30pm 32.7 N 9 17 1011.3 - 0.0 - Partly cloudy 10 - - - -
19/02:00pm 33.1 N 9 15 1011.7 - 0.0 - - 10 - - - -
19/01:30pm 32.6 N 11 15 1011.7 - 0.0 - - 10 - - - -
19/01:00pm 31.2 N 11 17 1012.8 - 0.0 - - 10 - - - -
19/12:30pm 33.0 ENE 8 15 1013.2 - 0.0 - - 10 - - - -
19/12:00pm 32.8 NE 8 13 1013.5 - 0.0 - Partly cloudy 10 - - - -
19/11:30am 31.3 N 9 13 1013.7 - 0.0 - - 10 - - - -
19/11:00am 31.8 WNW 4 8 1013.9 - 0.0 - - 10 - - - -
19/10:30am 31.8 E 5 8 1013.6 - 0.0 - - 10 - - - -
19/10:00am 30.4 SSW 4 7 1014.2 - 0.0 - - 10 - - - -
19/09:30am 29.3 SSW 5 9 1014.2 - 0.0 - - 10 - - - -
19/09:00am 28.6 SSW 5 9 1014.1 - 0.0 - - 10 - - - -
19/08:30am 27.7 S 5 7 1013.8 - 0.0 - - 10 - - - -
19/08:00am 25.6 SE 3 5 1013.5 - 0.0 - - 10 - - - -
19/07:30am 24.0 SE 3 5 1012.4 - 0.0 - - 10 - - - -
19/07:00am 22.1 CALM 0 0 1012.9 - 0.0 - - 10 - - - -
19/06:30am 21.8 SSE 3 4 1012.5 - 0.0 - - 10 - - - -
19/06:00am 22.1 S 3 4 1012.3 - 0.0 - - 10 - - - -
19/05:30am 22.1 S 3 3 1011.9 - 0.0 - - 10 - - - -
19/05:00am 22.6 S 4 5 1011.6 - 0.0 - - 10 - - - -
19/04:30am 22.1 S 4 4 1010.7 - 0.0 - - 10 - - - -
19/04:00am 22.8 SSW 4 5 1011.1 - 0.0 - - 10 - - - -
19/03:30am 24.0 SSW 4 5 1011.1 - 0.0 - - 10 - - - -
19/03:00am 24.1 S 4 5 1011.1 - 0.0 - - 10 - - - -
19/02:30am 24.8 SW 5 6 1011.3 - 0.0 - - 10 - - - -
19/02:00am 24.9 SW 5 6 1011.5 - 0.0 - - 10 - - - -
19/01:30am 25.2 WSW 5 6 1011.2 - 0.0 - - 10 - - - -
19/01:00am 25.2 WSW 5 7 1012.0 - 0.0 - - 10 - - - -
19/12:30am 25.4 WSW 5 8 1012.4 - 0.0 - - 10 - - - -
19/12:00am 25.3 WSW 4 6 1012.6 - 0.0 - - 10 - - - -
 
Date/Time
CST
Temp

°C
Wind Pressure Rain
since 9am
mm
Weather Cloud Vis
km
Sea
Height
m
Swell
Dir
 
Speed
knots
Gust
knots
hPa Trend Height
m
Period
s
Dir
18/11:30pm 24.6 W 1 3 1013.0 - 0.0 - - 10 - - - -
18/11:00pm 25.1 WNW 3 4 1013.1 - 0.0 - - 10 - - - -
18/10:30pm 25.0 W 3 4 1012.5 - 0.0 - - 10 - - - -
18/10:00pm 24.8 CALM 0 0 1013.0 - 0.0 - - 10 - - - -
18/09:30pm 25.2 NNW 1 3 1012.9 - 0.0 - - 10 - - - -
18/09:00pm 25.8 NNW 3 5 1012.6 - 0.0 - - 10 - - - -
18/08:30pm 26.3 NNW 4 5 1012.4 - 0.0 - - 10 - - - -
18/08:00pm 26.5 N 3 5 1012.3 - 0.0 - - 10 - - - -
18/07:30pm 27.0 N 4 6 1011.3 - 0.0 - - 10 - - - -
18/07:00pm 27.7 N 6 8 1011.6 - 0.0 - - 10 - - - -
18/06:30pm 28.3 N 7 12 1011.3 - 0.0 - - 10 - - - -
18/06:00pm 29.1 N 8 13 1010.9 - 0.0 - - 10 - - - -
18/05:30pm 29.6 N 8 12 1010.5 - 0.0 - - 10 - - - -
18/05:00pm 30.4 N 9 14 1010.3 - 0.0 - - 10 - - - -
18/04:30pm 30.5 NNW 9 15 1009.6 - 0.0 - - 10 - - - -
18/04:00pm 31.0 N 8 12 1010.2 - 0.0 - - 10 - - - -
18/03:30pm 31.1 N 9 15 1010.2 - 0.0 - - 10 - - - -
18/03:00pm 31.5 N 10 17 1010.2 - 0.0 - - 10 - - - -
18/02:30pm 31.9 N 11 17 1010.5 - 0.0 - - 10 - - - -
18/02:00pm 32.9 NNW 11 15 1010.7 - 0.0 - - 10 - - - -
18/01:30pm 32.7 N 12 16 1010.5 - 0.0 - - 10 - - - -
18/01:00pm 34.3 N 8 11 1011.7 - 0.0 - - 10 - - - -
18/12:30pm 35.1 NNE 5 10 1012.3 - 0.0 - - 10 - - - -
18/12:00pm 34.0 NNE 7 12 1012.7 - 0.0 - - 10 - - - -
18/11:30am 34.6 NE 7 11 1013.3 - 0.0 - - 10 - - - -
18/11:00am 33.7 E 6 10 1013.8 - 0.0 - - 10 - - - -
18/10:30am 32.6 E 5 8 1013.6 - 0.0 - - 10 - - - -
18/10:00am 32.0 SSE 4 8 1014.3 - 0.0 - - 10 - - - -
18/09:30am 30.0 SSE 5 9 1014.3 - 0.0 - - 10 - - - -
18/09:00am 28.4 SE 5 6 1014.4 - 0.0 - - 10 - - - -
18/08:30am 26.9 SSE 4 6 1014.3 - 0.0 - - 10 - - - -
18/08:00am 25.0 SE 3 4 1013.9 - 0.0 - - 10 - - - -
18/07:30am 23.2 ESE 2 4 1012.9 - 0.0 - - 10 - - - -
18/07:00am 21.3 SSE 3 4 1012.9 - 0.0 - - 10 - - - -
18/06:30am 21.3 S 4 4 1012.5 - 0.0 - - 10 - - - -
18/06:00am 21.6 S 4 5 1012.1 - 0.0 - - 10 - - - -
18/05:30am 21.7 S 4 5 1011.9 - 0.0 - - 10 - - - -
18/05:00am 22.2 SSW 4 6 1011.7 - 0.0 - - 10 - - - -
18/04:30am 23.5 S 5 6 1011.0 - 0.0 - - 10 - - - -
18/04:00am 23.4 S 5 6 1011.5 - 0.0 - - 10 - - - -
18/03:30am 22.8 S 5 6 1011.5 - 0.0 - - 10 - - - -
18/03:00am 22.1 S 4 5 1011.6 - 0.0 - - 10 - - - -
18/02:30am 22.0 S 4 5 1011.7 - 0.0 - - 10 - - - -
18/02:00am 22.5 CALM 0 0 1011.8 - 0.0 - - 10 - - - -
18/01:30am 22.9 CALM 0 0 1011.5 - 0.0 - - 10 - - - -
18/01:00am 22.6 CALM 0 0 1012.6 - 0.0 - - 10 - - - -
18/12:30am 22.8 CALM 0 0 1012.8 - 0.0 - - 10 - - - -
18/12:00am 23.2 CALM 0 0 1013.0 - 0.0 - - 10 - - - -
 
Date/Time
CST
Temp

°C
Wind Pressure Rain
since 9am
mm
Weather Cloud Vis
km
Sea
Height
m
Swell
Dir
 
Speed
knots
Gust
knots
hPa Trend Height
m
Period
s
Dir
17/11:30pm 22.9 CALM 0 0 1013.1 - 0.0 - - 10 - - - -
17/11:00pm 23.5 CALM 0 0 1013.1 - 0.0 - - 10 - - - -
17/10:30pm 23.4 CALM 0 0 1012.5 - 0.0 - - 10 - - - -
17/10:00pm 23.8 CALM 0 0 1012.7 - 0.0 - - 10 - - - -
17/09:30pm 24.8 NNE 3 4 1012.6 - 0.0 - - 10 - - - -
17/09:00pm 25.7 NNE 4 5 1012.5 - 0.0 - - 10 - - - -
17/08:30pm 26.4 N 4 6 1012.4 - 0.0 - - 10 - - - -
17/08:00pm 27.1 N 5 8 1012.0 - 0.0 - - 10 - - - -
17/07:30pm 27.6 N 6 8 1011.0 - 0.0 - - 10 - - - -
17/07:00pm 28.5 N 6 10 1011.4 - 0.0 - - 10 - - - -
17/06:30pm 29.5 NNE 7 11 1011.1 - 0.0 - - 10 - - - -
17/06:00pm 30.4 N 8 13 1010.7 - 0.0 - - 10 - - - -
17/05:30pm 31.3 N 10 16 1010.4 - 0.0 - - 10 - - - -
17/05:00pm 32.2 NNE 10 16 1010.3 - 0.0 - - 10 - - - -
17/04:30pm 32.8 NNE 9 15 1009.6 - 0.0 - - 10 - - - -
17/04:00pm 34.1 NNE 12 19 1010.1 - 0.0 - - 10 - - - -

Other Formats:

Comma delimited format used in spreadsheet applications
http://www.bom.gov.au/fwo/IDD60701/IDD60701.95101.axf

JavaScript Object Notation format (JSON) in row-major order
http://www.bom.gov.au/fwo/IDD60701/IDD60701.95101.json